nws-alerts: Checking more than four warning/county codes can delay the loading of your pages. You should use a cron job to get the data.
EllijayWeather Station Historical Data
Daily Summary for December 29, 2018 Units:  English    Metric   Both
Daily Weekly Monthly Yearly Custom
  High: Low: Average:
Temperature: 59 °F 43.2 °F 49.5 °F
Dew Point: 50.9 °F 33.8 °F 45.7 °F
Humidity: 100% 39% 89%
Wind Speed: 8.1mph 0mph 0.2mph
Wind Gust: 8mph - -
Wind- - WNW
Pressure: 30.30 in 30.15 in -
Precipitation: 0.03 in    
Historical Graphs
 
 
Tabular Data for December 29, 2018
Time Temperature Dew Point Pressure Wind Wind Speed Wind Gust Humidity Rainfall Rate (Hourly) solar
00:04 51.1 °F 50.7 °F 30.16 in Calm     99% 0 in meteobridge W/m2
00:09 50.9 °F 50.5 °F 30.16 in Calm     99% 0 in meteobridge W/m2
00:14 50.9 °F 50.5 °F 30.16 in Calm     99% 0 in meteobridge W/m2
00:19 51.1 °F 50.7 °F 30.16 in Calm     99% 0 in meteobridge W/m2
00:24 51.1 °F 50.7 °F 30.16 in Calm     99% 0 in meteobridge W/m2
00:29 50.9 °F 50.5 °F 30.16 in Calm     99% 0 in meteobridge W/m2
00:34 51.1 °F 50.7 °F 30.16 in Calm     99% 0 in meteobridge W/m2
00:39 51.1 °F 50.7 °F 30.16 in Calm     99% 0 in meteobridge W/m2
00:44 51.1 °F 50.7 °F 30.15 in Calm     99% 0 in meteobridge W/m2
00:49 51.1 °F 50.7 °F 30.15 in Calm     99% 0 in meteobridge W/m2
00:54 51.1 °F 50.7 °F 30.15 in Calm     99% 0 in meteobridge W/m2
00:59 51.1 °F 50.7 °F 30.16 in Calm     99% 0 in meteobridge W/m2
01:04 51.1 °F 50.7 °F 30.16 in Calm     99% 0 in meteobridge W/m2
01:09 51.1 °F 50.7 °F 30.17 in Calm     99% 0 in meteobridge W/m2
01:14 51.1 °F 50.7 °F 30.17 in Calm     99% 0 in meteobridge W/m2
01:19 51.1 °F 50.7 °F 30.17 in Calm     99% 0 in meteobridge W/m2
01:24 51.1 °F 50.7 °F 30.17 in Calm     99% 0 in meteobridge W/m2
01:29 51.1 °F 50.7 °F 30.16 in Calm     99% 0 in meteobridge W/m2
01:34 51.3 °F 50.9 °F 30.16 in Calm     99% 0 in meteobridge W/m2
01:39 51.3 °F 50.9 °F 30.16 in Calm     99% 0 in meteobridge W/m2
01:44 51.3 °F 50.9 °F 30.16 in Calm     99% 0 in meteobridge W/m2
01:48 51.3 °F 50.9 °F 30.17 in Calm     99% 0 in meteobridge W/m2
01:54 51.3 °F 50.9 °F 30.17 in Calm     99% 0 in meteobridge W/m2
01:59 51.3 °F 50.9 °F 30.17 in Calm     99% 0 in meteobridge W/m2
02:04 51.3 °F 50.9 °F 30.17 in Calm     99% 0 in meteobridge W/m2
02:09 51.3 °F 50.9 °F 30.17 in Calm     99% 0 in meteobridge W/m2
02:14 51.3 °F 50.9 °F 30.17 in Calm     99% 0 in meteobridge W/m2
02:19 51.3 °F 50.9 °F 30.17 in Calm     99% 0 in meteobridge W/m2
02:24 51.3 °F 50.9 °F 30.17 in Calm     99% 0 in meteobridge W/m2
02:29 51.3 °F 50.9 °F 30.17 in Calm     99% 0 in meteobridge W/m2
02:34 51.1 °F 50.7 °F 30.17 in Calm     99% 0 in meteobridge W/m2
02:39 51.1 °F 50.7 °F 30.17 in Calm     99% 0 in meteobridge W/m2
02:44 51.1 °F 50.7 °F 30.17 in Calm     99% 0 in meteobridge W/m2
02:49 51.1 °F 50.7 °F 30.17 in Calm     99% 0 in meteobridge W/m2
02:54 50.7 °F 50.4 °F 30.18 in Calm     99% 0 in meteobridge W/m2
02:59 50.5 °F 50.2 °F 30.17 in Calm     99% 0 in meteobridge W/m2
03:04 50.4 °F 50 °F 30.17 in Calm     99% 0 in meteobridge W/m2
03:09 50.2 °F 49.8 °F 30.17 in Calm     99% 0 in meteobridge W/m2
03:14 49.8 °F 49.5 °F 30.18 in Calm     99% 0 in meteobridge W/m2
03:19 49.6 °F 49.1 °F 30.18 in Calm     98% 0 in meteobridge W/m2
03:24 49.6 °F 49.5 °F 30.18 in Calm     99% 0 in meteobridge W/m2
03:29 49.3 °F 49.1 °F 30.18 in WNW 0.9 mph 2 mph 99% 0 in meteobridge W/m2
03:34 48.9 °F 48.4 °F 30.18 in Calm     98% 0 in meteobridge W/m2
03:39 48.7 °F 48.2 °F 30.18 in Calm     98% 0 in meteobridge W/m2
03:44 48.6 °F 48 °F 30.18 in Calm   1 mph 98% 0 in meteobridge W/m2
03:49 48.2 °F 47.7 °F 30.19 in Calm   1 mph 98% 0 in meteobridge W/m2
03:54 48 °F 47.5 °F 30.19 in Calm     98% 0 in meteobridge W/m2
03:59 47.8 °F 47.3 °F 30.19 in Calm     98% 0 in meteobridge W/m2
04:04 47.7 °F 47.1 °F 30.19 in Calm     98% 0 in meteobridge W/m2
04:09 47.7 °F 47.1 °F 30.19 in Calm     98% 0 in meteobridge W/m2
04:14 47.5 °F 46.9 °F 30.19 in Calm     98% 0 in meteobridge W/m2
04:19 47.3 °F 47.3 °F 30.19 in Calm     100% 0 in meteobridge W/m2
04:24 47.1 °F 46.6 °F 30.19 in Calm     98% 0 in meteobridge W/m2
04:29 46.9 °F 46.4 °F 30.19 in Calm     98% 0 in meteobridge W/m2
04:34 46.9 °F 46.4 °F 30.19 in Calm     98% 0 in meteobridge W/m2
04:39 46.8 °F 46.2 °F 30.20 in Calm     98% 0 in meteobridge W/m2
04:44 46.8 °F 46.2 °F 30.20 in Calm     98% 0 in meteobridge W/m2
04:49 46.6 °F 46 °F 30.20 in Calm     98% 0 in meteobridge W/m2
04:54 46.6 °F 46 °F 30.20 in Calm     98% 0 in meteobridge W/m2
04:59 46.4 °F 46.2 °F 30.20 in Calm     99% 0 in meteobridge W/m2
05:04 46.4 °F 46.2 °F 30.21 in Calm     99% 0 in meteobridge W/m2
05:09 46.2 °F 46 °F 30.21 in Calm     99% 0 in meteobridge W/m2
05:14 46.2 °F 46 °F 30.21 in Calm     99% 0 in meteobridge W/m2
05:19 46 °F 45.5 °F 30.21 in Calm     98% 0 in meteobridge W/m2
05:24 46 °F 45.5 °F 30.21 in Calm     98% 0 in meteobridge W/m2
05:29 45.9 °F 45.7 °F 30.21 in Calm     99% 0 in meteobridge W/m2
05:34 45.9 °F 45.7 °F 30.21 in Calm     99% 0 in meteobridge W/m2
05:39 45.7 °F 45.1 °F 30.22 in Calm   1 mph 98% 0 in meteobridge W/m2
05:44 45.7 °F 45.1 °F 30.22 in Calm     98% 0 in meteobridge W/m2
05:49 45.3 °F 44.8 °F 30.22 in Calm     98% 0 in meteobridge W/m2
05:54 45.3 °F 45.1 °F 30.22 in Calm     99% 0 in meteobridge W/m2
05:59 45.1 °F 44.6 °F 30.22 in Calm     98% 0 in meteobridge W/m2
06:04 45 °F 44.4 °F 30.23 in Calm     98% 0 in meteobridge W/m2
06:09 44.8 °F 44.2 °F 30.23 in Calm     98% 0 in meteobridge W/m2
06:14 44.8 °F 44.2 °F 30.23 in Calm     98% 0 in meteobridge W/m2
06:19 44.4 °F 43.9 °F 30.24 in Calm     98% 0 in meteobridge W/m2
06:24 44.4 °F 43.9 °F 30.24 in Calm     98% 0 in meteobridge W/m2
06:29 44.2 °F 43.7 °F 30.24 in Calm     98% 0 in meteobridge W/m2
06:34 44.2 °F 43.7 °F 30.24 in Calm     98% 0 in meteobridge W/m2
06:39 44.2 °F 44.1 °F 30.24 in Calm     99% 0 in meteobridge W/m2
06:44 44.1 °F 43.9 °F 30.24 in Calm     99% 0 in meteobridge W/m2
06:49 44.1 °F 43.9 °F 30.24 in Calm     99% 0 in meteobridge W/m2
06:54 44.1 °F 43.9 °F 30.24 in Calm     99% 0 in meteobridge W/m2
06:59 43.9 °F 43.3 °F 30.24 in Calm     98% 0 in meteobridge W/m2
07:04 43.9 °F 43.3 °F 30.25 in Calm     98% 0 in meteobridge W/m2
07:09 43.9 °F 43.3 °F 30.25 in Calm     98% 0 in meteobridge W/m2
07:14 43.7 °F 43.5 °F 30.25 in Calm     99% 0 in meteobridge W/m2
07:19 43.5 °F 43.3 °F 30.25 in Calm     99% 0 in meteobridge W/m2
07:24 43.5 °F 43.3 °F 30.24 in Calm     99% 0 in meteobridge W/m2
07:29 43.5 °F 43.3 °F 30.25 in Calm     99% 0 in meteobridge W/m2
07:34 43.3 °F 43.2 °F 30.25 in Calm     99% 0 in meteobridge W/m2
07:39 43.3 °F 43.2 °F 30.26 in Calm     99% 0 in meteobridge W/m2
07:44 43.3 °F 43.2 °F 30.27 in Calm     99% 0 in meteobridge W/m2
07:49 43.3 °F 43.2 °F 30.27 in Calm     99% 0 in meteobridge W/m2
07:54 43.3 °F 43.2 °F 30.26 in Calm     99% 0 in meteobridge W/m2
07:59 43.3 °F 43.2 °F 30.27 in Calm     99% 0 in meteobridge W/m2
08:04 43.3 °F 43.2 °F 30.27 in Calm     99% 0 in meteobridge W/m2
08:09 43.3 °F 43.2 °F 30.27 in Calm     99% 0 in meteobridge W/m2
08:14 43.3 °F 43.2 °F 30.27 in Calm     99% 0 in meteobridge W/m2
08:19 43.3 °F 43.2 °F 30.27 in Calm     99% 0 in meteobridge W/m2
08:24 43.3 °F 43.2 °F 30.27 in Calm     99% 0 in meteobridge W/m2
08:29 43.3 °F 43.2 °F 30.28 in Calm     99% 0 in meteobridge W/m2
08:34 43.3 °F 43.2 °F 30.28 in Calm     99% 0 in meteobridge W/m2
08:39 43.2 °F 43 °F 30.28 in Calm     99% 0 in meteobridge W/m2
08:44 43.3 °F 43.2 °F 30.28 in Calm     99% 0 in meteobridge W/m2
08:49 43.3 °F 43.2 °F 30.29 in Calm     99% 0 in meteobridge W/m2
08:54 43.5 °F 43.3 °F 30.29 in Calm     99% 0 in meteobridge W/m2
08:59 43.9 °F 43.7 °F 30.29 in Calm     99% 0 in meteobridge W/m2
09:04 44.1 °F 43.9 °F 30.29 in Calm     99% 0 in meteobridge W/m2
09:09 44.4 °F 44.2 °F 30.29 in Calm     99% 0 in meteobridge W/m2
09:14 44.8 °F 44.6 °F 30.29 in Calm     99% 0 in meteobridge W/m2
09:19 45.1 °F 45 °F 30.29 in Calm     99% 0 in meteobridge W/m2
09:24 45.3 °F 45.1 °F 30.29 in Calm     99% 0 in meteobridge W/m2
09:29 45.9 °F 45.7 °F 30.29 in Calm     99% 0 in meteobridge W/m2
09:34 46.2 °F 46 °F 30.30 in Calm     99% 0 in meteobridge W/m2
09:39 46.6 °F 46.6 °F 30.29 in Calm     100% 0 in meteobridge W/m2
09:44 46.9 °F 46.8 °F 30.29 in Calm     99% 0 in meteobridge W/m2
09:49 47.3 °F 47.3 °F 30.30 in Calm     100% 0 in meteobridge W/m2
09:54 47.7 °F 47.5 °F 30.30 in Calm     99% 0 in meteobridge W/m2
09:59 48 °F 48 °F 30.30 in Calm     100% 0 in meteobridge W/m2
10:04 48.4 °F 48.2 °F 30.30 in Calm     99% 0 in meteobridge W/m2
10:09 48.7 °F 48.6 °F 30.30 in Calm     99% 0 in meteobridge W/m2
10:14 48.9 °F 48.9 °F 30.30 in Calm   2 mph 100% 0 in meteobridge W/m2
10:19 49.3 °F 49.3 °F 30.30 in Calm     100% 0 in meteobridge W/m2
10:24 49.3 °F 49.3 °F 30.30 in Calm     100% 0 in meteobridge W/m2
10:29 49.5 °F 49.3 °F 30.30 in Calm     99% 0 in meteobridge W/m2
10:34 49.6 °F 49.6 °F 30.30 in Calm   1 mph 100% 0 in meteobridge W/m2
10:39 49.6 °F 49.6 °F 30.30 in Calm     100% 0 in meteobridge W/m2
10:44 49.8 °F 49.8 °F 30.30 in Calm   1 mph 100% 0 in meteobridge W/m2
10:49 49.8 °F 49.5 °F 30.30 in WNW 0.9 mph 1 mph 99% 0 in meteobridge W/m2
10:54 50 °F 49.6 °F 30.30 in Calm     99% 0 in meteobridge W/m2
10:59 50.2 °F 49.6 °F 30.30 in Calm   3 mph 98% 0 in meteobridge W/m2
11:04 50.4 °F 49.8 °F 30.30 in Calm     98% 0 in meteobridge W/m2
11:09 50.4 °F 49.5 °F 30.30 in Calm   3 mph 97% 0 in meteobridge W/m2
11:14 50.5 °F 49.1 °F 30.29 in North 2 mph 5 mph 95% 0 in meteobridge W/m2
11:19 50.5 °F 49.5 °F 30.29 in Calm     96% 0 in meteobridge W/m2
11:24 50.7 °F 49.1 °F 30.28 in NW 4.9 mph 6 mph 94% 0 in meteobridge W/m2
11:29 51.1 °F 49.6 °F 30.27 in Calm     95% 0 in meteobridge W/m2
11:34 51.3 °F 48.4 °F 30.27 in NNW 4 mph 6 mph 90% 0 in meteobridge W/m2
11:39 51.6 °F 48.7 °F 30.27 in Calm   1 mph 90% 0 in meteobridge W/m2
11:44 51.6 °F 48.6 °F 30.26 in NW 2 mph 5 mph 89% 0 in meteobridge W/m2
11:49 52 °F 48.2 °F 30.26 in NE 8.1 mph 8 mph 87% 0 in meteobridge W/m2
11:54 52.3 °F 48.2 °F 30.26 in NNW 0.9 mph 3 mph 86% 0 in meteobridge W/m2
11:59 52.7 °F 48 °F 30.26 in Calm     84% 0 in meteobridge W/m2
12:04 52.9 °F 48.2 °F 30.26 in NNW 2 mph 3 mph 84% 0 in meteobridge W/m2
12:09 53.2 °F 47.3 °F 30.25 in Calm   5 mph 80% 0 in meteobridge W/m2
12:14 53.4 °F 47.1 °F 30.25 in Calm   4 mph 79% 0 in meteobridge W/m2
12:19 53.6 °F 46.9 °F 30.25 in Calm   1 mph 78% 0 in meteobridge W/m2
12:23 53.8 °F 47.5 °F 30.25 in NW 2.9 mph 3 mph 79% 0 in meteobridge W/m2
12:29 53.8 °F 47.5 °F 30.24 in Calm   2 mph 79% 0 in meteobridge W/m2
12:34 53.8 °F 47.1 °F 30.24 in Calm   3 mph 78% 0 in meteobridge W/m2
12:39 54 °F 46.9 °F 30.24 in Calm   3 mph 77% 0 in meteobridge W/m2
12:44 54 °F 48.2 °F 30.23 in NW 2 mph 3 mph 81% 0 in meteobridge W/m2
12:49 54.1 °F 48.4 °F 30.23 in Calm   1 mph 81% 0 in meteobridge W/m2
12:54 54.1 °F 47.5 °F 30.23 in Calm   3 mph 78% 0 in meteobridge W/m2
12:59 54.5 °F 45.7 °F 30.22 in Calm   2 mph 72% 0 in meteobridge W/m2
13:04 54.9 °F 46.8 °F 30.23 in Calm     74% 0 in meteobridge W/m2
13:09 55 °F 46.6 °F 30.23 in Calm     73% 0 in meteobridge W/m2
13:14 55 °F 43.2 °F 30.23 in WNW 0.9 mph 3 mph 64% 0 in meteobridge W/m2
13:19 55.4 °F 43 °F 30.23 in NNW 0.9 mph 4 mph 63% 0 in meteobridge W/m2
13:24 55.8 °F 44.2 °F 30.23 in Calm   1 mph 65% 0 in meteobridge W/m2
13:29 55.8 °F 41.7 °F 30.22 in NW 0.9 mph 5 mph 59% 0 in meteobridge W/m2
13:34 56.1 °F 41.9 °F 30.22 in West 4 mph 5 mph 59% 0 in meteobridge W/m2
13:39 56.5 °F 38.7 °F 30.22 in Calm   6 mph 51% 0 in meteobridge W/m2
13:44 56.8 °F 37.4 °F 30.22 in Calm   7 mph 48% 0 in meteobridge W/m2
13:49 57 °F 38.5 °F 30.21 in Calm   5 mph 50% 0 in meteobridge W/m2
13:54 57.2 °F 36 °F 30.22 in Calm     45% 0 in meteobridge W/m2
13:59 57.6 °F 37.4 °F 30.21 in Calm   4 mph 47% 0 in meteobridge W/m2
14:04 57.9 °F 36.1 °F 30.21 in Calm   2 mph 44% 0 in meteobridge W/m2
14:09 58.3 °F 37 °F 30.21 in Calm   3 mph 45% 0 in meteobridge W/m2
14:14 58.3 °F 38.1 °F 30.21 in Calm     47% 0 in meteobridge W/m2
14:19 58.6 °F 40.6 °F 30.21 in Calm     51% 0 in meteobridge W/m2
14:24 58.6 °F 39.6 °F 30.22 in NW 0.9 mph 1 mph 49% 0 in meteobridge W/m2
14:29 58.6 °F 37.9 °F 30.22 in Calm   4 mph 46% 0 in meteobridge W/m2
14:34 58.8 °F 35.2 °F 30.22 in Calm   1 mph 41% 0 in meteobridge W/m2
14:39 59 °F 34.7 °F 30.22 in Calm   1 mph 40% 0 in meteobridge W/m2
14:44 59 °F 37 °F 30.22 in Calm   5 mph 44% 0 in meteobridge W/m2
14:49 59 °F 39.4 °F 30.22 in Calm   2 mph 48% 0 in meteobridge W/m2
14:54 58.6 °F 33.8 °F 30.22 in Calm   5 mph 39% 0 in meteobridge W/m2
14:59 58.6 °F 33.8 °F 30.22 in Calm   5 mph 39% 0 in meteobridge W/m2
15:04 58.6 °F 35.6 °F 30.22 in Calm   6 mph 42% 0 in meteobridge W/m2
15:09 58.5 °F 38.3 °F 30.22 in Calm     47% 0 in meteobridge W/m2
15:14 58.5 °F 35.4 °F 30.22 in NNW 6 mph 6 mph 42% 0 in meteobridge W/m2
15:19 58.6 °F 35.1 °F 30.22 in Calm     41% 0 in meteobridge W/m2
15:24 58.8 °F 35.8 °F 30.22 in Calm     42% 0 in meteobridge W/m2
15:29 59 °F 36.5 °F 30.21 in NNW 0.9 mph 2 mph 43% 0 in meteobridge W/m2
15:34 59 °F 36 °F 30.22 in Calm   1 mph 42% 0 in meteobridge W/m2
15:39 59 °F 39.4 °F 30.22 in Calm   2 mph 48% 0 in meteobridge W/m2
15:44 58.8 °F 36.3 °F 30.22 in Calm   1 mph 43% 0 in meteobridge W/m2
15:49 58.6 °F 40.6 °F 30.22 in Calm     51% 0 in meteobridge W/m2
15:54 58.5 °F 41.4 °F 30.22 in Calm     53% 0 in meteobridge W/m2
15:59 58.1 °F 39 °F 30.22 in Calm     49% 0 in meteobridge W/m2
16:04 57.6 °F 40.1 °F 30.22 in Calm     52% 0 in meteobridge W/m2
16:09 57.4 °F 44.4 °F 30.22 in Calm     62% 0 in meteobridge W/m2
16:14 56.8 °F 43.5 °F 30.22 in Calm     61% 0 in meteobridge W/m2
16:19 56.5 °F 47.1 °F 30.22 in Calm     71% 0 in meteobridge W/m2
16:24 56.3 °F 47.8 °F 30.22 in Calm     73% 0 in meteobridge W/m2
16:28 56.1 °F 48 °F 30.23 in Calm     74% 0 in meteobridge W/m2
16:34 55.9 °F 48.6 °F 30.23 in Calm     76% 0 in meteobridge W/m2
16:39 55.8 °F 48.4 °F 30.23 in Calm     76% 0 in meteobridge W/m2
16:44 55.4 °F 48.4 °F 30.23 in Calm     77% 0 in meteobridge W/m2
16:49 55 °F 48 °F 30.22 in Calm     77% 0 in meteobridge W/m2
16:54 54.9 °F 48.7 °F 30.23 in Calm     80% 0 in meteobridge W/m2
16:59 54.7 °F 48.6 °F 30.23 in Calm     80% 0 in meteobridge W/m2
17:04 54.3 °F 48.6 °F 30.23 in Calm     81% 0 in meteobridge W/m2
17:09 54 °F 48.6 °F 30.23 in Calm     82% 0 in meteobridge W/m2
17:14 53.6 °F 48.2 °F 30.23 in Calm     82% 0 in meteobridge W/m2
17:19 53.2 °F 47.8 °F 30.23 in Calm     82% 0 in meteobridge W/m2
17:24 52.9 °F 47.8 °F 30.23 in Calm     83% 0 in meteobridge W/m2
17:29 52.7 °F 47.7 °F 30.23 in Calm     83% 0 in meteobridge W/m2
17:34 52.3 °F 47.3 °F 30.24 in Calm     83% 0 in meteobridge W/m2
17:39 52.2 °F 47.5 °F 30.24 in Calm     84% 0 in meteobridge W/m2
17:44 51.6 °F 47.3 °F 30.23 in Calm     85% 0 in meteobridge W/m2
17:49 51.3 °F 46.9 °F 30.23 in Calm     85% 0 in meteobridge W/m2
17:54 50.9 °F 46.9 °F 30.23 in Calm     86% 0 in meteobridge W/m2
17:59 50.5 °F 46.6 °F 30.23 in Calm     86% 0 in meteobridge W/m2
18:04 50.2 °F 46.4 °F 30.23 in Calm     87% 0 in meteobridge W/m2
18:09 50 °F 46.2 °F 30.24 in Calm     87% 0 in meteobridge W/m2
18:14 49.6 °F 46.2 °F 30.24 in Calm     88% 0 in meteobridge W/m2
18:19 49.3 °F 46.2 °F 30.24 in Calm     89% 0 in meteobridge W/m2
18:24 48.9 °F 45.9 °F 30.24 in Calm     89% 0 in meteobridge W/m2
18:29 48.7 °F 45.7 °F 30.23 in Calm     89% 0 in meteobridge W/m2
18:34 48.4 °F 45.5 °F 30.24 in Calm     90% 0 in meteobridge W/m2
18:39 48 °F 45.5 °F 30.24 in Calm     91% 0 in meteobridge W/m2
18:44 47.8 °F 45.3 °F 30.24 in Calm     91% 0 in meteobridge W/m2
18:49 47.7 °F 45.1 °F 30.24 in Calm     91% 0 in meteobridge W/m2
18:54 47.7 °F 45.5 °F 30.25 in Calm     92% 0 in meteobridge W/m2
18:59 47.5 °F 45.3 °F 30.24 in Calm     92% 0 in meteobridge W/m2
19:04 47.3 °F 45.1 °F 30.24 in Calm     92% 0 in meteobridge W/m2
19:09 47.1 °F 45 °F 30.25 in Calm     92% 0 in meteobridge W/m2
19:14 47.1 °F 45 °F 30.25 in Calm     92% 0 in meteobridge W/m2
19:19 46.9 °F 44.8 °F 30.25 in Calm     92% 0 in meteobridge W/m2
19:24 46.8 °F 44.6 °F 30.25 in Calm     92% 0 in meteobridge W/m2
19:29 46.6 °F 44.6 °F 30.26 in Calm     93% 0 in meteobridge W/m2
19:34 46.2 °F 44.2 °F 30.25 in Calm     93% 0 in meteobridge W/m2
19:39 46 °F 44.1 °F 30.25 in Calm     93% 0 in meteobridge W/m2
19:44 46 °F 44.4 °F 30.25 in Calm     94% 0 in meteobridge W/m2
19:49 45.9 °F 44.2 °F 30.25 in Calm     94% 0 in meteobridge W/m2
19:54 45.9 °F 44.2 °F 30.25 in Calm     94% 0 in meteobridge W/m2
19:59 45.7 °F 44.1 °F 30.24 in Calm     94% 0 in meteobridge W/m2
20:04 45.7 °F 44.1 °F 30.24 in Calm     94% 0 in meteobridge W/m2
20:09 45.7 °F 44.4 °F 30.24 in Calm     95% 0 in meteobridge W/m2
20:14 45.7 °F 44.4 °F 30.24 in Calm     95% 0 in meteobridge W/m2
20:19 45.7 °F 44.4 °F 30.24 in Calm     95% 0 in meteobridge W/m2
20:24 45.7 °F 44.4 °F 30.23 in Calm     95% 0 in meteobridge W/m2
20:29 45.7 °F 44.4 °F 30.24 in Calm     95% 0 in meteobridge W/m2
20:34 45.7 °F 44.4 °F 30.24 in Calm     95% 0 in meteobridge W/m2
20:38 45.7 °F 44.4 °F 30.24 in Calm     95% 0 in meteobridge W/m2
20:44 45.7 °F 44.6 °F 30.23 in Calm     96% 0 in meteobridge W/m2
20:49 45.7 °F 44.4 °F 30.24 in Calm     95% 0 in meteobridge W/m2
20:54 45.7 °F 44.6 °F 30.23 in Calm     96% 0 in meteobridge W/m2
20:59 45.9 °F 44.8 °F 30.24 in Calm     96% 0 in meteobridge W/m2
21:04 45.9 °F 44.8 °F 30.23 in Calm     96% 0 in meteobridge W/m2
21:09 45.9 °F 44.8 °F 30.23 in Calm     96% 0 in meteobridge W/m2
21:14 45.9 °F 44.8 °F 30.23 in Calm     96% 0 in meteobridge W/m2
21:19 45.9 °F 44.8 °F 30.24 in Calm     96% 0 in meteobridge W/m2
21:24 45.9 °F 44.8 °F 30.24 in Calm     96% 0 in meteobridge W/m2
21:29 46 °F 45 °F 30.24 in Calm     96% 0 in meteobridge W/m2
21:34 45.9 °F 44.8 °F 30.24 in Calm     96% 0 in meteobridge W/m2
21:39 46 °F 45 °F 30.25 in Calm     96% 0 in meteobridge W/m2
21:44 46 °F 45 °F 30.25 in Calm     96% 0 in meteobridge W/m2
21:49 46 °F 45 °F 30.26 in Calm     96% 0 in meteobridge W/m2
21:54 46 °F 45 °F 30.25 in Calm     96% 0 in meteobridge W/m2
21:59 46.2 °F 45.1 °F 30.25 in Calm     96% 0 in meteobridge W/m2
22:04 46.2 °F 45.1 °F 30.26 in Calm     96% 0 in meteobridge W/m2
22:09 46.2 °F 45.1 °F 30.27 in Calm     96% 0 in meteobridge W/m2
22:14 46.4 °F 45.3 °F 30.28 in Calm     96% 0 in meteobridge W/m2
22:19 46.4 °F 45.3 °F 30.28 in Calm     96% 0 in meteobridge W/m2
22:24 46.6 °F 45.5 °F 30.29 in Calm     96% 0 in meteobridge W/m2
22:29 46.6 °F 45.5 °F 30.28 in Calm     96% 0 in meteobridge W/m2
22:34 46.8 °F 45.7 °F 30.28 in Calm     96% 0 in meteobridge W/m2
22:39 46.8 °F 46 °F 30.28 in Calm     97% 0 in meteobridge W/m2
22:44 46.8 °F 45.7 °F 30.27 in Calm     96% 0 in meteobridge W/m2
22:49 46.8 °F 45.7 °F 30.26 in Calm     96% 0.01 in meteobridge W/m2
22:54 46.6 °F 45.5 °F 30.26 in Calm     96% 0.01 in meteobridge W/m2
22:59 46.6 °F 45.9 °F 30.25 in Calm     97% 0.01 in meteobridge W/m2
23:04 46.8 °F 46 °F 30.25 in Calm     97% 0.01 in meteobridge W/m2
23:09 46.8 °F 46 °F 30.25 in Calm     97% 0.01 in meteobridge W/m2
23:14 46.6 °F 45.9 °F 30.25 in Calm     97% 0.01 in meteobridge W/m2
23:19 46.6 °F 45.9 °F 30.24 in Calm     97% 0.01 in meteobridge W/m2
23:24 46.8 °F 46 °F 30.24 in Calm     97% 0.01 in meteobridge W/m2
23:29 46.8 °F 46 °F 30.24 in Calm     97% 0.01 in meteobridge W/m2
23:34 46.8 °F 46 °F 30.23 in Calm     97% 0.01 in meteobridge W/m2
23:39 46.8 °F 46 °F 30.23 in Calm     97% 0.02 in meteobridge W/m2
23:44 46.9 °F 46.2 °F 30.24 in Calm     97% 0.02 in meteobridge W/m2
23:49 46.9 °F 46.2 °F 30.24 in Calm     97% 0.01 in meteobridge W/m2
23:54 46.9 °F 46.2 °F 30.25 in Calm     97% 0.02 in meteobridge W/m2
23:58 46.9 °F 46.2 °F 30.24 in Calm     97% 0.02 in meteobridge W/m2
EllijayWeather
Compliments of Weather Underground - 2.5 mb